sensor_id;sensor_type;location;lat;lon;timestamp;P1;durP1;ratioP1;P2;durP2;ratioP2
17177;SDS011;8704;52.006;4.374;2022-12-07T00:01:17;64.13;;;60.90;;
17177;SDS011;8704;52.006;4.374;2022-12-07T00:03:46;65.97;;;62.88;;
17177;SDS011;8704;52.006;4.374;2022-12-07T00:06:16;60.33;;;57.13;;
17177;SDS011;8704;52.006;4.374;2022-12-07T00:08:46;57.63;;;54.40;;
17177;SDS011;8704;52.006;4.374;2022-12-07T00:11:17;54.33;;;51.63;;
17177;SDS011;8704;52.006;4.374;2022-12-07T00:13:46;50.20;;;47.20;;
17177;SDS011;8704;52.006;4.374;2022-12-07T00:16:18;45.90;;;43.58;;
17177;SDS011;8704;52.006;4.374;2022-12-07T00:18:48;42.28;;;40.28;;
17177;SDS011;8704;52.006;4.374;2022-12-07T00:21:17;38.70;;;36.63;;
17177;SDS011;8704;52.006;4.374;2022-12-07T00:23:47;38.58;;;36.10;;
17177;SDS011;8704;52.006;4.374;2022-12-07T00:26:18;34.67;;;32.75;;
17177;SDS011;8704;52.006;4.374;2022-12-07T00:28:48;30.77;;;29.05;;
17177;SDS011;8704;52.006;4.374;2022-12-07T00:31:18;27.98;;;26.30;;
17177;SDS011;8704;52.006;4.374;2022-12-07T00:33:48;28.35;;;26.50;;
17177;SDS011;8704;52.006;4.374;2022-12-07T00:36:17;26.80;;;25.35;;
17177;SDS011;8704;52.006;4.374;2022-12-07T00:38:52;27.55;;;25.95;;
17177;SDS011;8704;52.006;4.374;2022-12-07T00:41:22;28.98;;;26.90;;
17177;SDS011;8704;52.006;4.374;2022-12-07T00:43:51;27.52;;;25.83;;
17177;SDS011;8704;52.006;4.374;2022-12-07T00:46:20;26.92;;;25.52;;
17177;SDS011;8704;52.006;4.374;2022-12-07T00:48:48;28.00;;;26.08;;
17177;SDS011;8704;52.006;4.374;2022-12-07T00:51:18;26.20;;;24.70;;
17177;SDS011;8704;52.006;4.374;2022-12-07T00:53:47;25.90;;;24.30;;
17177;SDS011;8704;52.006;4.374;2022-12-07T00:56:16;27.92;;;26.05;;
17177;SDS011;8704;52.006;4.374;2022-12-07T00:58:50;27.33;;;25.50;;
17177;SDS011;8704;52.006;4.374;2022-12-07T01:01:20;26.50;;;24.73;;
17177;SDS011;8704;52.006;4.374;2022-12-07T01:03:48;27.60;;;25.67;;
17177;SDS011;8704;52.006;4.374;2022-12-07T01:06:16;28.92;;;27.25;;
17177;SDS011;8704;52.006;4.374;2022-12-07T01:08:46;30.55;;;28.30;;
17177;SDS011;8704;52.006;4.374;2022-12-07T01:11:14;28.67;;;27.05;;
17177;SDS011;8704;52.006;4.374;2022-12-07T01:13:44;29.70;;;28.10;;
17177;SDS011;8704;52.006;4.374;2022-12-07T01:16:15;29.88;;;28.15;;
17177;SDS011;8704;52.006;4.374;2022-12-07T01:18:45;32.30;;;30.13;;
17177;SDS011;8704;52.006;4.374;2022-12-07T01:21:15;33.10;;;31.23;;
17177;SDS011;8704;52.006;4.374;2022-12-07T01:23:45;35.65;;;33.65;;
17177;SDS011;8704;52.006;4.374;2022-12-07T01:26:13;36.78;;;34.47;;
17177;SDS011;8704;52.006;4.374;2022-12-07T01:28:43;33.95;;;32.00;;
17177;SDS011;8704;52.006;4.374;2022-12-07T01:31:12;33.75;;;31.55;;
17177;SDS011;8704;52.006;4.374;2022-12-07T01:33:43;36.97;;;34.77;;
17177;SDS011;8704;52.006;4.374;2022-12-07T01:36:13;36.17;;;34.08;;
17177;SDS011;8704;52.006;4.374;2022-12-07T01:38:43;37.65;;;35.65;;
17177;SDS011;8704;52.006;4.374;2022-12-07T01:41:11;38.97;;;36.78;;
17177;SDS011;8704;52.006;4.374;2022-12-07T01:44:06;37.58;;;35.22;;
17177;SDS011;8704;52.006;4.374;2022-12-07T01:46:38;47.58;;;44.60;;
17177;SDS011;8704;52.006;4.374;2022-12-07T01:49:08;57.00;;;53.85;;
17177;SDS011;8704;52.006;4.374;2022-12-07T01:51:40;60.83;;;56.85;;
17177;SDS011;8704;52.006;4.374;2022-12-07T01:54:09;68.97;;;64.82;;
17177;SDS011;8704;52.006;4.374;2022-12-07T01:56:40;73.30;;;69.30;;
17177;SDS011;8704;52.006;4.374;2022-12-07T01:59:12;80.57;;;76.28;;
17177;SDS011;8704;52.006;4.374;2022-12-07T02:01:43;69.90;;;66.05;;
17177;SDS011;8704;52.006;4.374;2022-12-07T02:04:11;78.82;;;74.57;;
17177;SDS011;8704;52.006;4.374;2022-12-07T02:06:40;80.13;;;76.03;;
17177;SDS011;8704;52.006;4.374;2022-12-07T02:09:10;80.78;;;76.60;;
17177;SDS011;8704;52.006;4.374;2022-12-07T02:11:38;77.22;;;73.53;;
17177;SDS011;8704;52.006;4.374;2022-12-07T02:14:07;78.38;;;74.05;;
17177;SDS011;8704;52.006;4.374;2022-12-07T02:16:37;77.82;;;73.95;;
17177;SDS011;8704;52.006;4.374;2022-12-07T02:19:32;77.32;;;72.82;;
17177;SDS011;8704;52.006;4.374;2022-12-07T02:22:22;75.93;;;71.78;;
17177;SDS011;8704;52.006;4.374;2022-12-07T02:25:13;71.35;;;67.35;;
17177;SDS011;8704;52.006;4.374;2022-12-07T02:27:56;66.75;;;63.35;;
17177;SDS011;8704;52.006;4.374;2022-12-07T02:30:33;66.82;;;63.47;;
17177;SDS011;8704;52.006;4.374;2022-12-07T02:33:09;59.85;;;56.60;;
17177;SDS011;8704;52.006;4.374;2022-12-07T02:35:42;60.08;;;56.40;;
17177;SDS011;8704;52.006;4.374;2022-12-07T02:38:16;56.08;;;52.95;;
17177;SDS011;8704;52.006;4.374;2022-12-07T02:43:19;58.17;;;54.75;;
17177;SDS011;8704;52.006;4.374;2022-12-07T02:45:53;53.92;;;50.63;;
17177;SDS011;8704;52.006;4.374;2022-12-07T02:48:25;53.33;;;50.38;;
17177;SDS011;8704;52.006;4.374;2022-12-07T02:51:12;55.63;;;52.50;;
17177;SDS011;8704;52.006;4.374;2022-12-07T02:53:41;60.63;;;57.08;;
17177;SDS011;8704;52.006;4.374;2022-12-07T02:56:12;65.45;;;61.00;;
17177;SDS011;8704;52.006;4.374;2022-12-07T02:58:50;67.40;;;63.88;;
17177;SDS011;8704;52.006;4.374;2022-12-07T03:01:32;62.70;;;59.17;;
17177;SDS011;8704;52.006;4.374;2022-12-07T03:04:09;73.10;;;68.50;;
17177;SDS011;8704;52.006;4.374;2022-12-07T03:06:48;76.60;;;71.97;;
17177;SDS011;8704;52.006;4.374;2022-12-07T03:09:21;84.65;;;79.93;;
17177;SDS011;8704;52.006;4.374;2022-12-07T03:11:59;87.10;;;82.72;;
17177;SDS011;8704;52.006;4.374;2022-12-07T03:14:34;88.50;;;83.93;;
17177;SDS011;8704;52.006;4.374;2022-12-07T03:19:37;89.80;;;85.20;;
17177;SDS011;8704;52.006;4.374;2022-12-07T03:22:08;92.85;;;88.35;;
17177;SDS011;8704;52.006;4.374;2022-12-07T03:24:39;90.03;;;85.82;;
17177;SDS011;8704;52.006;4.374;2022-12-07T03:27:14;89.38;;;85.10;;
17177;SDS011;8704;52.006;4.374;2022-12-07T03:29:48;88.30;;;84.35;;
17177;SDS011;8704;52.006;4.374;2022-12-07T03:32:23;94.35;;;89.80;;
17177;SDS011;8704;52.006;4.374;2022-12-07T03:34:58;88.85;;;84.32;;
17177;SDS011;8704;52.006;4.374;2022-12-07T03:37:31;79.88;;;76.07;;
17177;SDS011;8704;52.006;4.374;2022-12-07T03:40:03;81.80;;;77.80;;
17177;SDS011;8704;52.006;4.374;2022-12-07T03:42:38;87.30;;;82.95;;
17177;SDS011;8704;52.006;4.374;2022-12-07T03:45:06;86.75;;;82.45;;
17177;SDS011;8704;52.006;4.374;2022-12-07T03:47:37;85.57;;;80.95;;
17177;SDS011;8704;52.006;4.374;2022-12-07T03:50:13;83.65;;;79.30;;
17177;SDS011;8704;52.006;4.374;2022-12-07T03:52:50;78.28;;;74.32;;
17177;SDS011;8704;52.006;4.374;2022-12-07T03:55:22;78.47;;;74.30;;
17177;SDS011;8704;52.006;4.374;2022-12-07T03:57:56;73.50;;;69.93;;
17177;SDS011;8704;52.006;4.374;2022-12-07T04:00:30;70.47;;;66.88;;
17177;SDS011;8704;52.006;4.374;2022-12-07T04:03:00;67.32;;;63.83;;
17177;SDS011;8704;52.006;4.374;2022-12-07T04:05:29;63.03;;;59.70;;
17177;SDS011;8704;52.006;4.374;2022-12-07T04:07:57;61.45;;;57.88;;
17177;SDS011;8704;52.006;4.374;2022-12-07T04:10:25;61.97;;;58.40;;
17177;SDS011;8704;52.006;4.374;2022-12-07T04:12:53;58.20;;;55.25;;
17177;SDS011;8704;52.006;4.374;2022-12-07T04:15:23;54.10;;;51.28;;
17177;SDS011;8704;52.006;4.374;2022-12-07T04:17:50;54.80;;;51.40;;
17177;SDS011;8704;52.006;4.374;2022-12-07T04:20:20;51.45;;;48.47;;
17177;SDS011;8704;52.006;4.374;2022-12-07T04:22:48;50.70;;;47.15;;
17177;SDS011;8704;52.006;4.374;2022-12-07T04:25:16;49.83;;;47.05;;
17177;SDS011;8704;52.006;4.374;2022-12-07T04:27:44;46.03;;;42.90;;
17177;SDS011;8704;52.006;4.374;2022-12-07T04:30:12;47.17;;;44.42;;
17177;SDS011;8704;52.006;4.374;2022-12-07T04:32:40;48.40;;;45.20;;
17177;SDS011;8704;52.006;4.374;2022-12-07T04:35:08;46.15;;;43.20;;
17177;SDS011;8704;52.006;4.374;2022-12-07T04:37:38;45.20;;;42.80;;
17177;SDS011;8704;52.006;4.374;2022-12-07T04:40:07;47.78;;;44.60;;
17177;SDS011;8704;52.006;4.374;2022-12-07T04:42:37;43.97;;;41.80;;
17177;SDS011;8704;52.006;4.374;2022-12-07T04:45:05;48.28;;;45.35;;
17177;SDS011;8704;52.006;4.374;2022-12-07T04:47:34;47.17;;;43.88;;
17177;SDS011;8704;52.006;4.374;2022-12-07T04:50:03;46.40;;;44.00;;
17177;SDS011;8704;52.006;4.374;2022-12-07T04:52:32;45.42;;;42.35;;
17177;SDS011;8704;52.006;4.374;2022-12-07T04:55:01;41.47;;;39.03;;
17177;SDS011;8704;52.006;4.374;2022-12-07T04:57:29;41.10;;;38.75;;
17177;SDS011;8704;52.006;4.374;2022-12-07T04:59:57;41.63;;;39.42;;
17177;SDS011;8704;52.006;4.374;2022-12-07T05:02:26;39.80;;;37.28;;
17177;SDS011;8704;52.006;4.374;2022-12-07T05:04:54;39.95;;;37.58;;
17177;SDS011;8704;52.006;4.374;2022-12-07T05:07:22;39.20;;;36.90;;
17177;SDS011;8704;52.006;4.374;2022-12-07T05:09:50;39.75;;;37.15;;
17177;SDS011;8704;52.006;4.374;2022-12-07T05:12:19;44.35;;;40.80;;
17177;SDS011;8704;52.006;4.374;2022-12-07T05:14:47;44.70;;;42.20;;
17177;SDS011;8704;52.006;4.374;2022-12-07T05:17:15;43.88;;;41.17;;
17177;SDS011;8704;52.006;4.374;2022-12-07T05:19:43;44.40;;;41.08;;
17177;SDS011;8704;52.006;4.374;2022-12-07T05:22:11;44.05;;;40.58;;
17177;SDS011;8704;52.006;4.374;2022-12-07T05:24:41;44.63;;;41.92;;
17177;SDS011;8704;52.006;4.374;2022-12-07T05:27:09;44.47;;;41.78;;
17177;SDS011;8704;52.006;4.374;2022-12-07T05:29:38;45.50;;;42.90;;
17177;SDS011;8704;52.006;4.374;2022-12-07T05:32:06;50.70;;;47.70;;
17177;SDS011;8704;52.006;4.374;2022-12-07T05:34:34;48.90;;;46.03;;
17177;SDS011;8704;52.006;4.374;2022-12-07T05:37:02;48.67;;;45.88;;
17177;SDS011;8704;52.006;4.374;2022-12-07T05:39:30;52.22;;;48.35;;
17177;SDS011;8704;52.006;4.374;2022-12-07T05:41:58;54.60;;;51.38;;
17177;SDS011;8704;52.006;4.374;2022-12-07T05:44:50;55.00;;;51.42;;
17177;SDS011;8704;52.006;4.374;2022-12-07T05:47:18;54.17;;;51.22;;
17177;SDS011;8704;52.006;4.374;2022-12-07T05:49:46;52.90;;;49.50;;
17177;SDS011;8704;52.006;4.374;2022-12-07T05:52:15;56.67;;;53.45;;
17177;SDS011;8704;52.006;4.374;2022-12-07T05:54:43;57.50;;;53.97;;
17177;SDS011;8704;52.006;4.374;2022-12-07T05:57:11;60.25;;;56.42;;
17177;SDS011;8704;52.006;4.374;2022-12-07T05:59:39;56.85;;;53.58;;
17177;SDS011;8704;52.006;4.374;2022-12-07T06:02:08;53.53;;;50.38;;
17177;SDS011;8704;52.006;4.374;2022-12-07T06:04:38;54.53;;;50.88;;
17177;SDS011;8704;52.006;4.374;2022-12-07T06:07:08;52.30;;;49.05;;
17177;SDS011;8704;52.006;4.374;2022-12-07T06:09:37;53.65;;;49.80;;
17177;SDS011;8704;52.006;4.374;2022-12-07T06:12:06;52.60;;;49.40;;
17177;SDS011;8704;52.006;4.374;2022-12-07T06:14:53;53.90;;;50.70;;
17177;SDS011;8704;52.006;4.374;2022-12-07T06:17:23;57.45;;;54.22;;
17177;SDS011;8704;52.006;4.374;2022-12-07T06:19:51;58.33;;;55.08;;
17177;SDS011;8704;52.006;4.374;2022-12-07T06:22:19;57.83;;;54.50;;
17177;SDS011;8704;52.006;4.374;2022-12-07T06:24:47;60.22;;;56.60;;
17177;SDS011;8704;52.006;4.374;2022-12-07T06:27:15;63.08;;;59.65;;
17177;SDS011;8704;52.006;4.374;2022-12-07T06:29:43;62.40;;;58.78;;
17177;SDS011;8704;52.006;4.374;2022-12-07T06:32:11;60.30;;;56.80;;
17177;SDS011;8704;52.006;4.374;2022-12-07T06:34:40;61.92;;;58.13;;
17177;SDS011;8704;52.006;4.374;2022-12-07T06:37:08;64.38;;;61.05;;
17177;SDS011;8704;52.006;4.374;2022-12-07T06:39:36;63.38;;;59.80;;
17177;SDS011;8704;52.006;4.374;2022-12-07T06:42:05;59.22;;;55.60;;
17177;SDS011;8704;52.006;4.374;2022-12-07T06:44:33;63.67;;;60.00;;
17177;SDS011;8704;52.006;4.374;2022-12-07T06:47:01;61.92;;;58.03;;
17177;SDS011;8704;52.006;4.374;2022-12-07T06:49:52;60.50;;;57.13;;
17177;SDS011;8704;52.006;4.374;2022-12-07T06:52:20;65.10;;;61.63;;
17177;SDS011;8704;52.006;4.374;2022-12-07T06:54:48;58.15;;;54.13;;
17177;SDS011;8704;52.006;4.374;2022-12-07T06:57:16;56.22;;;52.97;;
17177;SDS011;8704;52.006;4.374;2022-12-07T06:59:43;57.75;;;54.63;;
17177;SDS011;8704;52.006;4.374;2022-12-07T07:02:11;55.45;;;52.55;;
17177;SDS011;8704;52.006;4.374;2022-12-07T07:04:40;59.75;;;56.35;;
17177;SDS011;8704;52.006;4.374;2022-12-07T07:07:09;57.42;;;54.55;;
17177;SDS011;8704;52.006;4.374;2022-12-07T07:09:37;56.72;;;53.20;;
17177;SDS011;8704;52.006;4.374;2022-12-07T07:12:05;54.20;;;50.88;;
17177;SDS011;8704;52.006;4.374;2022-12-07T07:14:33;53.20;;;49.90;;
17177;SDS011;8704;52.006;4.374;2022-12-07T07:17:01;50.83;;;48.13;;
17177;SDS011;8704;52.006;4.374;2022-12-07T07:19:30;50.70;;;47.80;;
17177;SDS011;8704;52.006;4.374;2022-12-07T07:21:58;49.45;;;46.63;;
17177;SDS011;8704;52.006;4.374;2022-12-07T07:24:27;52.08;;;49.40;;
17177;SDS011;8704;52.006;4.374;2022-12-07T07:26:55;53.10;;;50.42;;
17177;SDS011;8704;52.006;4.374;2022-12-07T07:29:23;56.95;;;53.85;;
17177;SDS011;8704;52.006;4.374;2022-12-07T07:31:51;55.33;;;52.05;;
17177;SDS011;8704;52.006;4.374;2022-12-07T07:34:20;60.95;;;57.38;;
17177;SDS011;8704;52.006;4.374;2022-12-07T07:36:48;59.28;;;55.35;;
17177;SDS011;8704;52.006;4.374;2022-12-07T07:39:16;62.58;;;59.13;;
17177;SDS011;8704;52.006;4.374;2022-12-07T07:41:45;65.43;;;61.88;;
17177;SDS011;8704;52.006;4.374;2022-12-07T07:44:13;62.38;;;58.38;;
17177;SDS011;8704;52.006;4.374;2022-12-07T07:46:42;61.72;;;58.47;;
17177;SDS011;8704;52.006;4.374;2022-12-07T07:49:10;68.82;;;65.07;;
17177;SDS011;8704;52.006;4.374;2022-12-07T07:51:38;66.38;;;62.45;;
17177;SDS011;8704;52.006;4.374;2022-12-07T07:54:06;67.65;;;64.05;;
17177;SDS011;8704;52.006;4.374;2022-12-07T07:56:34;69.47;;;64.72;;
17177;SDS011;8704;52.006;4.374;2022-12-07T07:59:04;76.00;;;71.68;;
17177;SDS011;8704;52.006;4.374;2022-12-07T08:01:32;76.10;;;72.30;;
17177;SDS011;8704;52.006;4.374;2022-12-07T08:04:00;75.20;;;71.10;;
17177;SDS011;8704;52.006;4.374;2022-12-07T08:06:28;72.93;;;69.13;;
17177;SDS011;8704;52.006;4.374;2022-12-07T08:08:58;71.60;;;67.90;;
17177;SDS011;8704;52.006;4.374;2022-12-07T08:11:26;70.78;;;67.13;;
17177;SDS011;8704;52.006;4.374;2022-12-07T08:13:54;67.38;;;63.97;;
17177;SDS011;8704;52.006;4.374;2022-12-07T08:16:23;71.18;;;67.05;;
17177;SDS011;8704;52.006;4.374;2022-12-07T08:18:51;70.25;;;66.90;;
17177;SDS011;8704;52.006;4.374;2022-12-07T08:21:19;71.20;;;67.60;;
17177;SDS011;8704;52.006;4.374;2022-12-07T08:23:48;73.32;;;69.20;;
17177;SDS011;8704;52.006;4.374;2022-12-07T08:26:16;72.43;;;68.57;;
17177;SDS011;8704;52.006;4.374;2022-12-07T08:28:44;63.35;;;60.35;;
17177;SDS011;8704;52.006;4.374;2022-12-07T08:31:13;69.05;;;65.13;;
17177;SDS011;8704;52.006;4.374;2022-12-07T08:33:45;73.55;;;69.53;;
17177;SDS011;8704;52.006;4.374;2022-12-07T08:36:15;73.80;;;70.18;;
17177;SDS011;8704;52.006;4.374;2022-12-07T08:38:44;62.55;;;59.08;;
17177;SDS011;8704;52.006;4.374;2022-12-07T08:41:32;68.03;;;64.53;;
17177;SDS011;8704;52.006;4.374;2022-12-07T08:44:00;48.13;;;45.60;;
17177;SDS011;8704;52.006;4.374;2022-12-07T08:46:29;43.38;;;41.15;;
17177;SDS011;8704;52.006;4.374;2022-12-07T08:49:05;39.95;;;37.63;;
17177;SDS011;8704;52.006;4.374;2022-12-07T08:54:04;38.88;;;36.28;;
17177;SDS011;8704;52.006;4.374;2022-12-07T08:56:34;39.57;;;37.17;;
17177;SDS011;8704;52.006;4.374;2022-12-07T08:59:03;39.08;;;36.83;;
17177;SDS011;8704;52.006;4.374;2022-12-07T09:01:31;37.47;;;35.22;;
17177;SDS011;8704;52.006;4.374;2022-12-07T09:04:00;40.95;;;38.85;;
17177;SDS011;8704;52.006;4.374;2022-12-07T09:06:29;42.75;;;40.22;;
17177;SDS011;8704;52.006;4.374;2022-12-07T09:08:58;46.53;;;44.00;;
17177;SDS011;8704;52.006;4.374;2022-12-07T09:11:28;41.05;;;38.72;;
17177;SDS011;8704;52.006;4.374;2022-12-07T09:13:56;46.58;;;44.08;;
17177;SDS011;8704;52.006;4.374;2022-12-07T09:16:24;48.10;;;45.60;;
17177;SDS011;8704;52.006;4.374;2022-12-07T09:18:52;48.47;;;46.00;;
17177;SDS011;8704;52.006;4.374;2022-12-07T09:21:23;45.53;;;42.95;;
17177;SDS011;8704;52.006;4.374;2022-12-07T09:23:52;44.13;;;41.70;;
17177;SDS011;8704;52.006;4.374;2022-12-07T09:26:20;45.08;;;42.88;;
17177;SDS011;8704;52.006;4.374;2022-12-07T09:28:48;43.85;;;41.08;;
17177;SDS011;8704;52.006;4.374;2022-12-07T09:31:16;43.95;;;41.10;;
17177;SDS011;8704;52.006;4.374;2022-12-07T09:33:53;43.10;;;40.47;;
17177;SDS011;8704;52.006;4.374;2022-12-07T09:36:22;41.80;;;39.40;;
17177;SDS011;8704;52.006;4.374;2022-12-07T09:38:51;42.22;;;39.63;;
17177;SDS011;8704;52.006;4.374;2022-12-07T09:41:20;40.53;;;38.33;;
17177;SDS011;8704;52.006;4.374;2022-12-07T09:43:49;41.53;;;38.58;;
17177;SDS011;8704;52.006;4.374;2022-12-07T09:46:19;38.10;;;35.75;;
17177;SDS011;8704;52.006;4.374;2022-12-07T09:48:48;40.88;;;38.28;;
17177;SDS011;8704;52.006;4.374;2022-12-07T09:51:18;38.08;;;35.95;;
17177;SDS011;8704;52.006;4.374;2022-12-07T09:53:52;42.63;;;40.33;;
17177;SDS011;8704;52.006;4.374;2022-12-07T09:56:21;41.15;;;38.70;;
17177;SDS011;8704;52.006;4.374;2022-12-07T09:58:51;42.40;;;39.63;;
17177;SDS011;8704;52.006;4.374;2022-12-07T10:01:24;44.60;;;42.15;;
17177;SDS011;8704;52.006;4.374;2022-12-07T10:03:53;41.00;;;38.78;;
17177;SDS011;8704;52.006;4.374;2022-12-07T10:06:26;38.78;;;35.50;;
17177;SDS011;8704;52.006;4.374;2022-12-07T10:08:55;26.75;;;24.92;;
17177;SDS011;8704;52.006;4.374;2022-12-07T10:11:23;24.70;;;23.02;;
17177;SDS011;8704;52.006;4.374;2022-12-07T10:13:52;23.98;;;22.35;;
17177;SDS011;8704;52.006;4.374;2022-12-07T10:19:20;15.95;;;12.23;;
17177;SDS011;8704;52.006;4.374;2022-12-07T10:22:09;15.18;;;12.30;;
17177;SDS011;8704;52.006;4.374;2022-12-07T10:24:41;11.75;;;8.88;;
17177;SDS011;8704;52.006;4.374;2022-12-07T10:27:20;9.23;;;8.20;;
17177;SDS011;8704;52.006;4.374;2022-12-07T10:29:53;8.13;;;7.32;;
17177;SDS011;8704;52.006;4.374;2022-12-07T10:32:27;9.65;;;5.95;;
17177;SDS011;8704;52.006;4.374;2022-12-07T10:35:17;7.28;;;5.30;;
17177;SDS011;8704;52.006;4.374;2022-12-07T10:37:48;10.85;;;6.10;;
17177;SDS011;8704;52.006;4.374;2022-12-07T10:40:26;10.00;;;4.70;;
17177;SDS011;8704;52.006;4.374;2022-12-07T10:43:01;9.65;;;4.07;;
17177;SDS011;8704;52.006;4.374;2022-12-07T10:45:34;4.90;;;3.53;;
17177;SDS011;8704;52.006;4.374;2022-12-07T10:48:29;6.20;;;3.72;;
17177;SDS011;8704;52.006;4.374;2022-12-07T10:51:05;11.35;;;4.13;;
17177;SDS011;8704;52.006;4.374;2022-12-07T10:53:44;7.93;;;2.95;;
17177;SDS011;8704;52.006;4.374;2022-12-07T10:56:29;10.40;;;2.65;;
17177;SDS011;8704;52.006;4.374;2022-12-07T10:59:39;7.90;;;2.05;;
17177;SDS011;8704;52.006;4.374;2022-12-07T11:02:24;6.07;;;2.35;;
17177;SDS011;8704;52.006;4.374;2022-12-07T11:05:05;7.43;;;1.80;;
17177;SDS011;8704;52.006;4.374;2022-12-07T11:07:43;9.75;;;2.22;;
17177;SDS011;8704;52.006;4.374;2022-12-07T11:10:23;6.50;;;2.42;;
17177;SDS011;8704;52.006;4.374;2022-12-07T11:13:03;8.40;;;1.60;;
17177;SDS011;8704;52.006;4.374;2022-12-07T11:15:47;6.10;;;1.80;;
17177;SDS011;8704;52.006;4.374;2022-12-07T11:18:40;5.28;;;1.80;;
17177;SDS011;8704;52.006;4.374;2022-12-07T11:21:21;6.22;;;1.92;;
17177;SDS011;8704;52.006;4.374;2022-12-07T11:23:56;14.15;;;2.08;;
17177;SDS011;8704;52.006;4.374;2022-12-07T11:26:33;6.82;;;1.42;;
17177;SDS011;8704;52.006;4.374;2022-12-07T11:29:16;6.88;;;1.90;;
17177;SDS011;8704;52.006;4.374;2022-12-07T11:31:58;5.57;;;1.52;;
17177;SDS011;8704;52.006;4.374;2022-12-07T11:34:36;8.07;;;2.25;;
17177;SDS011;8704;52.006;4.374;2022-12-07T11:37:12;4.97;;;2.25;;
17177;SDS011;8704;52.006;4.374;2022-12-07T11:39:44;6.07;;;2.10;;
17177;SDS011;8704;52.006;4.374;2022-12-07T11:42:20;5.07;;;2.55;;
17177;SDS011;8704;52.006;4.374;2022-12-07T11:44:53;7.72;;;4.38;;
17177;SDS011;8704;52.006;4.374;2022-12-07T11:47:28;6.00;;;5.40;;
17177;SDS011;8704;52.006;4.374;2022-12-07T11:50:03;9.68;;;7.78;;
17177;SDS011;8704;52.006;4.374;2022-12-07T11:52:43;10.02;;;9.25;;
17177;SDS011;8704;52.006;4.374;2022-12-07T11:55:17;12.73;;;11.45;;
17177;SDS011;8704;52.006;4.374;2022-12-07T11:57:50;14.93;;;13.93;;
17177;SDS011;8704;52.006;4.374;2022-12-07T12:00:26;16.52;;;15.32;;
17177;SDS011;8704;52.006;4.374;2022-12-07T12:02:56;11.48;;;10.57;;
17177;SDS011;8704;52.006;4.374;2022-12-07T12:07:59;11.18;;;10.13;;
17177;SDS011;8704;52.006;4.374;2022-12-07T12:10:54;7.90;;;7.18;;
17177;SDS011;8704;52.006;4.374;2022-12-07T12:17:04;9.50;;;8.65;;
17177;SDS011;8704;52.006;4.374;2022-12-07T12:19:54;10.65;;;7.90;;
17177;SDS011;8704;52.006;4.374;2022-12-07T12:22:32;12.00;;;7.50;;
17177;SDS011;8704;52.006;4.374;2022-12-07T12:25:04;12.10;;;7.95;;
17177;SDS011;8704;52.006;4.374;2022-12-07T12:27:35;16.40;;;9.18;;
17177;SDS011;8704;52.006;4.374;2022-12-07T12:30:07;13.00;;;10.10;;
17177;SDS011;8704;52.006;4.374;2022-12-07T12:33:03;8.63;;;5.25;;
17177;SDS011;8704;52.006;4.374;2022-12-07T12:35:34;7.63;;;4.60;;
17177;SDS011;8704;52.006;4.374;2022-12-07T12:41:01;8.00;;;3.38;;
17177;SDS011;8704;52.006;4.374;2022-12-07T12:43:39;9.52;;;2.60;;
17177;SDS011;8704;52.006;4.374;2022-12-07T12:46:37;5.10;;;1.77;;
17177;SDS011;8704;52.006;4.374;2022-12-07T12:55:20;8.57;;;2.67;;
17177;SDS011;8704;52.006;4.374;2022-12-07T13:04:24;7.03;;;2.20;;
17177;SDS011;8704;52.006;4.374;2022-12-07T13:07:03;4.90;;;1.75;;
17177;SDS011;8704;52.006;4.374;2022-12-07T13:09:32;7.68;;;1.80;;
17177;SDS011;8704;52.006;4.374;2022-12-07T13:12:03;4.57;;;1.05;;
17177;SDS011;8704;52.006;4.374;2022-12-07T13:14:52;4.88;;;2.03;;
17177;SDS011;8704;52.006;4.374;2022-12-07T13:20:46;5.43;;;1.40;;
17177;SDS011;8704;52.006;4.374;2022-12-07T13:23:24;4.63;;;1.30;;
17177;SDS011;8704;52.006;4.374;2022-12-07T13:26:09;4.57;;;1.05;;
17177;SDS011;8704;52.006;4.374;2022-12-07T13:28:44;4.10;;;1.20;;
17177;SDS011;8704;52.006;4.374;2022-12-07T13:31:15;2.72;;;1.30;;
17177;SDS011;8704;52.006;4.374;2022-12-07T13:33:58;4.65;;;0.80;;
17177;SDS011;8704;52.006;4.374;2022-12-07T13:36:27;3.30;;;0.95;;
17177;SDS011;8704;52.006;4.374;2022-12-07T13:39:16;2.67;;;1.25;;
17177;SDS011;8704;52.006;4.374;2022-12-07T13:41:49;4.60;;;1.35;;
17177;SDS011;8704;52.006;4.374;2022-12-07T13:44:19;3.75;;;1.10;;
17177;SDS011;8704;52.006;4.374;2022-12-07T13:46:49;2.97;;;0.80;;
17177;SDS011;8704;52.006;4.374;2022-12-07T13:49:22;4.80;;;1.00;;
17177;SDS011;8704;52.006;4.374;2022-12-07T13:51:52;4.47;;;0.88;;
17177;SDS011;8704;52.006;4.374;2022-12-07T13:54:22;4.38;;;1.10;;
17177;SDS011;8704;52.006;4.374;2022-12-07T13:56:51;6.30;;;1.10;;
17177;SDS011;8704;52.006;4.374;2022-12-07T13:59:21;5.35;;;1.00;;
17177;SDS011;8704;52.006;4.374;2022-12-07T14:01:51;5.43;;;0.85;;
17177;SDS011;8704;52.006;4.374;2022-12-07T14:04:29;3.65;;;1.05;;
17177;SDS011;8704;52.006;4.374;2022-12-07T14:06:59;4.07;;;1.13;;
17177;SDS011;8704;52.006;4.374;2022-12-07T14:09:30;4.22;;;1.38;;
17177;SDS011;8704;52.006;4.374;2022-12-07T14:11:58;5.80;;;1.60;;
17177;SDS011;8704;52.006;4.374;2022-12-07T14:14:26;6.05;;;1.60;;
17177;SDS011;8704;52.006;4.374;2022-12-07T14:17:08;5.72;;;1.42;;
17177;SDS011;8704;52.006;4.374;2022-12-07T14:19:43;5.07;;;1.40;;
17177;SDS011;8704;52.006;4.374;2022-12-07T14:24:48;6.15;;;1.77;;
17177;SDS011;8704;52.006;4.374;2022-12-07T14:27:17;4.35;;;1.40;;
17177;SDS011;8704;52.006;4.374;2022-12-07T14:29:47;4.88;;;1.80;;
17177;SDS011;8704;52.006;4.374;2022-12-07T14:32:18;6.10;;;2.00;;
17177;SDS011;8704;52.006;4.374;2022-12-07T14:34:57;4.47;;;2.30;;
17177;SDS011;8704;52.006;4.374;2022-12-07T14:37:27;8.38;;;2.42;;
17177;SDS011;8704;52.006;4.374;2022-12-07T14:39:58;8.15;;;3.05;;
17177;SDS011;8704;52.006;4.374;2022-12-07T14:42:27;9.10;;;2.95;;
17177;SDS011;8704;52.006;4.374;2022-12-07T14:44:57;8.48;;;3.45;;
17177;SDS011;8704;52.006;4.374;2022-12-07T14:47:26;7.82;;;1.88;;
17177;SDS011;8704;52.006;4.374;2022-12-07T14:50:15;6.07;;;1.60;;
17177;SDS011;8704;52.006;4.374;2022-12-07T14:52:45;5.47;;;2.55;;
17177;SDS011;8704;52.006;4.374;2022-12-07T14:55:38;4.90;;;2.70;;
17177;SDS011;8704;52.006;4.374;2022-12-07T14:58:06;6.35;;;3.10;;
17177;SDS011;8704;52.006;4.374;2022-12-07T15:00:39;7.35;;;3.47;;
17177;SDS011;8704;52.006;4.374;2022-12-07T15:03:07;6.50;;;3.65;;
17177;SDS011;8704;52.006;4.374;2022-12-07T15:05:35;7.22;;;3.60;;
17177;SDS011;8704;52.006;4.374;2022-12-07T15:08:04;5.78;;;3.70;;
17177;SDS011;8704;52.006;4.374;2022-12-07T15:10:33;9.32;;;4.35;;
17177;SDS011;8704;52.006;4.374;2022-12-07T15:13:06;7.07;;;4.35;;
17177;SDS011;8704;52.006;4.374;2022-12-07T15:15:52;5.68;;;4.10;;
17177;SDS011;8704;52.006;4.374;2022-12-07T15:18:22;7.28;;;4.40;;
17177;SDS011;8704;52.006;4.374;2022-12-07T15:20:50;6.18;;;4.60;;
17177;SDS011;8704;52.006;4.374;2022-12-07T15:23:19;6.03;;;3.95;;
17177;SDS011;8704;52.006;4.374;2022-12-07T15:25:47;8.35;;;4.82;;
17177;SDS011;8704;52.006;4.374;2022-12-07T15:28:17;6.18;;;4.40;;
17177;SDS011;8704;52.006;4.374;2022-12-07T15:30:45;10.13;;;4.90;;
17177;SDS011;8704;52.006;4.374;2022-12-07T15:33:13;9.43;;;5.20;;
17177;SDS011;8704;52.006;4.374;2022-12-07T15:35:42;10.15;;;3.45;;
17177;SDS011;8704;52.006;4.374;2022-12-07T15:38:11;9.98;;;3.47;;
17177;SDS011;8704;52.006;4.374;2022-12-07T15:40:39;9.15;;;2.55;;
17177;SDS011;8704;52.006;4.374;2022-12-07T15:43:08;7.93;;;1.90;;
17177;SDS011;8704;52.006;4.374;2022-12-07T15:45:58;7.63;;;1.73;;
17177;SDS011;8704;52.006;4.374;2022-12-07T15:48:25;6.47;;;1.77;;
17177;SDS011;8704;52.006;4.374;2022-12-07T15:51:01;11.43;;;2.72;;